sensor_id;sensor_type;location;lat;lon;timestamp;P1;durP1;ratioP1;P2;durP2;ratioP2
69392;SDS011;56582;44.624;20.378;2023-03-19T00:01:41;9.73;;;5.47;;
69392;SDS011;56582;44.624;20.378;2023-03-19T00:04:07;8.93;;;5.32;;
69392;SDS011;56582;44.624;20.378;2023-03-19T00:06:32;8.00;;;5.20;;
69392;SDS011;56582;44.624;20.378;2023-03-19T00:08:58;8.70;;;6.80;;
69392;SDS011;56582;44.624;20.378;2023-03-19T00:11:24;7.72;;;5.18;;
69392;SDS011;56582;44.624;20.378;2023-03-19T00:13:50;10.25;;;6.05;;
69392;SDS011;56582;44.624;20.378;2023-03-19T00:16:15;8.90;;;5.73;;
69392;SDS011;56582;44.624;20.378;2023-03-19T00:18:41;9.37;;;5.60;;
69392;SDS011;56582;44.624;20.378;2023-03-19T00:21:06;11.27;;;5.75;;
69392;SDS011;56582;44.624;20.378;2023-03-19T00:23:32;8.80;;;5.93;;
69392;SDS011;56582;44.624;20.378;2023-03-19T00:25:58;10.02;;;6.03;;
69392;SDS011;56582;44.624;20.378;2023-03-19T00:28:24;10.15;;;5.93;;
69392;SDS011;56582;44.624;20.378;2023-03-19T00:30:51;10.43;;;6.17;;
69392;SDS011;56582;44.624;20.378;2023-03-19T00:33:16;8.50;;;5.00;;
69392;SDS011;56582;44.624;20.378;2023-03-19T00:35:42;8.37;;;5.80;;
69392;SDS011;56582;44.624;20.378;2023-03-19T00:38:07;9.90;;;5.73;;
69392;SDS011;56582;44.624;20.378;2023-03-19T00:40:33;8.88;;;5.28;;
69392;SDS011;56582;44.624;20.378;2023-03-19T00:42:58;8.53;;;5.73;;
69392;SDS011;56582;44.624;20.378;2023-03-19T00:45:23;8.67;;;5.80;;
69392;SDS011;56582;44.624;20.378;2023-03-19T00:47:49;10.97;;;6.47;;
69392;SDS011;56582;44.624;20.378;2023-03-19T00:50:14;10.65;;;5.72;;
69392;SDS011;56582;44.624;20.378;2023-03-19T00:52:40;7.87;;;5.37;;
69392;SDS011;56582;44.624;20.378;2023-03-19T00:55:05;10.37;;;4.93;;
69392;SDS011;56582;44.624;20.378;2023-03-19T00:57:31;8.60;;;6.43;;
69392;SDS011;56582;44.624;20.378;2023-03-19T00:59:57;8.83;;;5.70;;
69392;SDS011;56582;44.624;20.378;2023-03-19T01:02:23;7.95;;;5.30;;
69392;SDS011;56582;44.624;20.378;2023-03-19T01:04:49;7.32;;;5.45;;
69392;SDS011;56582;44.624;20.378;2023-03-19T01:07:14;7.50;;;4.53;;
69392;SDS011;56582;44.624;20.378;2023-03-19T01:09:40;7.53;;;5.37;;
69392;SDS011;56582;44.624;20.378;2023-03-19T01:12:06;9.82;;;5.78;;
69392;SDS011;56582;44.624;20.378;2023-03-19T01:14:32;8.57;;;5.75;;
69392;SDS011;56582;44.624;20.378;2023-03-19T01:16:58;6.70;;;4.33;;
69392;SDS011;56582;44.624;20.378;2023-03-19T01:19:24;10.73;;;5.20;;
69392;SDS011;56582;44.624;20.378;2023-03-19T01:21:50;8.00;;;5.22;;
69392;SDS011;56582;44.624;20.378;2023-03-19T01:24:15;8.73;;;5.50;;
69392;SDS011;56582;44.624;20.378;2023-03-19T01:26:41;9.97;;;6.80;;
69392;SDS011;56582;44.624;20.378;2023-03-19T01:29:07;9.38;;;5.85;;
69392;SDS011;56582;44.624;20.378;2023-03-19T01:31:33;8.30;;;5.55;;
69392;SDS011;56582;44.624;20.378;2023-03-19T01:33:59;8.95;;;5.70;;
69392;SDS011;56582;44.624;20.378;2023-03-19T01:36:26;10.30;;;4.83;;
69392;SDS011;56582;44.624;20.378;2023-03-19T01:38:52;7.97;;;4.90;;
69392;SDS011;56582;44.624;20.378;2023-03-19T01:41:17;7.85;;;5.88;;
69392;SDS011;56582;44.624;20.378;2023-03-19T01:43:43;8.70;;;5.67;;
69392;SDS011;56582;44.624;20.378;2023-03-19T01:46:20;10.45;;;5.85;;
69392;SDS011;56582;44.624;20.378;2023-03-19T01:48:59;6.82;;;5.35;;
69392;SDS011;56582;44.624;20.378;2023-03-19T01:51:27;7.63;;;5.35;;
69392;SDS011;56582;44.624;20.378;2023-03-19T01:53:57;8.98;;;6.03;;
69392;SDS011;56582;44.624;20.378;2023-03-19T01:56:29;10.10;;;6.07;;
69392;SDS011;56582;44.624;20.378;2023-03-19T01:58:57;7.47;;;4.55;;
69392;SDS011;56582;44.624;20.378;2023-03-19T02:01:27;8.10;;;5.35;;
69392;SDS011;56582;44.624;20.378;2023-03-19T02:03:56;8.38;;;5.65;;
69392;SDS011;56582;44.624;20.378;2023-03-19T02:06:23;10.57;;;6.28;;
69392;SDS011;56582;44.624;20.378;2023-03-19T02:08:49;8.80;;;6.17;;
69392;SDS011;56582;44.624;20.378;2023-03-19T02:11:15;6.70;;;4.70;;
69392;SDS011;56582;44.624;20.378;2023-03-19T02:13:42;9.40;;;5.87;;
69392;SDS011;56582;44.624;20.378;2023-03-19T02:16:08;7.85;;;5.80;;
69392;SDS011;56582;44.624;20.378;2023-03-19T02:18:34;8.38;;;5.68;;
69392;SDS011;56582;44.624;20.378;2023-03-19T02:21:07;10.23;;;5.53;;
69392;SDS011;56582;44.624;20.378;2023-03-19T02:26:12;8.90;;;5.80;;
69392;SDS011;56582;44.624;20.378;2023-03-19T02:28:41;9.77;;;6.10;;
69392;SDS011;56582;44.624;20.378;2023-03-19T02:31:08;9.03;;;5.47;;
69392;SDS011;56582;44.624;20.378;2023-03-19T02:33:34;8.35;;;5.80;;
69392;SDS011;56582;44.624;20.378;2023-03-19T02:36:00;10.00;;;5.97;;
69392;SDS011;56582;44.624;20.378;2023-03-19T02:38:27;8.65;;;4.82;;
69392;SDS011;56582;44.624;20.378;2023-03-19T02:41:00;7.95;;;5.57;;
69392;SDS011;56582;44.624;20.378;2023-03-19T02:43:31;8.30;;;5.00;;
69392;SDS011;56582;44.624;20.378;2023-03-19T02:46:06;8.52;;;5.63;;
69392;SDS011;56582;44.624;20.378;2023-03-19T02:48:33;9.00;;;6.15;;
69392;SDS011;56582;44.624;20.378;2023-03-19T02:51:00;7.80;;;5.25;;
69392;SDS011;56582;44.624;20.378;2023-03-19T02:53:26;9.47;;;5.80;;
69392;SDS011;56582;44.624;20.378;2023-03-19T02:55:51;8.90;;;6.17;;
69392;SDS011;56582;44.624;20.378;2023-03-19T02:58:17;9.40;;;5.60;;
69392;SDS011;56582;44.624;20.378;2023-03-19T03:00:43;8.00;;;5.32;;
69392;SDS011;56582;44.624;20.378;2023-03-19T03:03:09;10.17;;;5.83;;
69392;SDS011;56582;44.624;20.378;2023-03-19T03:05:35;8.43;;;6.18;;
69392;SDS011;56582;44.624;20.378;2023-03-19T03:08:00;9.52;;;6.28;;
69392;SDS011;56582;44.624;20.378;2023-03-19T03:10:27;8.17;;;5.40;;
69392;SDS011;56582;44.624;20.378;2023-03-19T03:12:52;8.77;;;5.68;;
69392;SDS011;56582;44.624;20.378;2023-03-19T03:15:18;8.30;;;5.43;;
69392;SDS011;56582;44.624;20.378;2023-03-19T03:17:43;10.15;;;5.22;;
69392;SDS011;56582;44.624;20.378;2023-03-19T03:20:10;8.17;;;5.23;;
69392;SDS011;56582;44.624;20.378;2023-03-19T03:22:38;8.00;;;4.85;;
69392;SDS011;56582;44.624;20.378;2023-03-19T03:25:04;8.82;;;5.80;;
69392;SDS011;56582;44.624;20.378;2023-03-19T03:27:30;8.88;;;5.40;;
69392;SDS011;56582;44.624;20.378;2023-03-19T03:29:57;8.00;;;5.22;;
69392;SDS011;56582;44.624;20.378;2023-03-19T03:32:22;6.77;;;4.83;;
69392;SDS011;56582;44.624;20.378;2023-03-19T03:34:48;7.97;;;4.78;;
69392;SDS011;56582;44.624;20.378;2023-03-19T03:37:14;8.40;;;5.63;;
69392;SDS011;56582;44.624;20.378;2023-03-19T03:39:40;7.17;;;4.77;;
69392;SDS011;56582;44.624;20.378;2023-03-19T03:42:06;9.02;;;5.07;;
69392;SDS011;56582;44.624;20.378;2023-03-19T03:44:32;7.57;;;5.27;;
69392;SDS011;56582;44.624;20.378;2023-03-19T03:46:57;7.77;;;5.47;;
69392;SDS011;56582;44.624;20.378;2023-03-19T03:49:23;9.20;;;5.87;;
69392;SDS011;56582;44.624;20.378;2023-03-19T03:51:48;7.63;;;5.27;;
69392;SDS011;56582;44.624;20.378;2023-03-19T03:54:14;11.13;;;5.70;;
69392;SDS011;56582;44.624;20.378;2023-03-19T03:56:40;6.65;;;4.45;;
69392;SDS011;56582;44.624;20.378;2023-03-19T03:59:05;9.67;;;4.70;;
69392;SDS011;56582;44.624;20.378;2023-03-19T04:01:31;9.03;;;6.20;;
69392;SDS011;56582;44.624;20.378;2023-03-19T04:03:57;8.05;;;5.50;;
69392;SDS011;56582;44.624;20.378;2023-03-19T04:06:23;8.30;;;5.90;;
69392;SDS011;56582;44.624;20.378;2023-03-19T04:08:51;8.75;;;5.82;;
69392;SDS011;56582;44.624;20.378;2023-03-19T04:11:16;7.67;;;5.20;;
69392;SDS011;56582;44.624;20.378;2023-03-19T04:13:42;6.47;;;4.30;;
69392;SDS011;56582;44.624;20.378;2023-03-19T04:16:08;8.27;;;4.38;;
69392;SDS011;56582;44.624;20.378;2023-03-19T04:18:35;9.57;;;4.47;;
69392;SDS011;56582;44.624;20.378;2023-03-19T04:21:01;9.10;;;4.75;;
69392;SDS011;56582;44.624;20.378;2023-03-19T04:23:30;7.03;;;4.38;;
69392;SDS011;56582;44.624;20.378;2023-03-19T04:25:59;8.00;;;4.50;;
69392;SDS011;56582;44.624;20.378;2023-03-19T04:28:26;7.97;;;4.85;;
69392;SDS011;56582;44.624;20.378;2023-03-19T04:30:51;9.37;;;5.80;;
69392;SDS011;56582;44.624;20.378;2023-03-19T04:33:17;7.82;;;5.55;;
69392;SDS011;56582;44.624;20.378;2023-03-19T04:35:43;9.23;;;6.33;;
69392;SDS011;56582;44.624;20.378;2023-03-19T04:38:08;7.63;;;5.43;;
69392;SDS011;56582;44.624;20.378;2023-03-19T04:40:34;8.03;;;5.03;;
69392;SDS011;56582;44.624;20.378;2023-03-19T04:43:00;8.00;;;5.73;;
69392;SDS011;56582;44.624;20.378;2023-03-19T04:45:25;9.93;;;5.50;;
69392;SDS011;56582;44.624;20.378;2023-03-19T04:47:52;8.57;;;6.33;;
69392;SDS011;56582;44.624;20.378;2023-03-19T04:50:18;8.93;;;5.90;;
69392;SDS011;56582;44.624;20.378;2023-03-19T04:52:43;7.10;;;4.45;;
69392;SDS011;56582;44.624;20.378;2023-03-19T04:55:09;9.23;;;5.13;;
69392;SDS011;56582;44.624;20.378;2023-03-19T04:57:35;8.53;;;5.70;;
69392;SDS011;56582;44.624;20.378;2023-03-19T05:00:00;7.40;;;4.97;;
69392;SDS011;56582;44.624;20.378;2023-03-19T05:02:26;7.43;;;4.63;;
69392;SDS011;56582;44.624;20.378;2023-03-19T05:04:52;7.25;;;5.40;;
69392;SDS011;56582;44.624;20.378;2023-03-19T05:07:17;7.40;;;4.43;;
69392;SDS011;56582;44.624;20.378;2023-03-19T05:09:43;7.70;;;5.63;;
69392;SDS011;56582;44.624;20.378;2023-03-19T05:12:10;7.90;;;5.88;;
69392;SDS011;56582;44.624;20.378;2023-03-19T05:14:36;12.50;;;6.80;;
69392;SDS011;56582;44.624;20.378;2023-03-19T05:17:02;12.05;;;8.15;;
69392;SDS011;56582;44.624;20.378;2023-03-19T05:19:27;13.30;;;9.20;;
69392;SDS011;56582;44.624;20.378;2023-03-19T05:21:53;10.47;;;7.93;;
69392;SDS011;56582;44.624;20.378;2023-03-19T05:24:18;8.30;;;6.18;;
69392;SDS011;56582;44.624;20.378;2023-03-19T05:26:44;8.33;;;5.47;;
69392;SDS011;56582;44.624;20.378;2023-03-19T05:29:10;13.30;;;8.20;;
69392;SDS011;56582;44.624;20.378;2023-03-19T05:31:36;14.27;;;8.73;;
69392;SDS011;56582;44.624;20.378;2023-03-19T05:34:02;11.48;;;7.57;;
69392;SDS011;56582;44.624;20.378;2023-03-19T05:36:28;10.20;;;6.22;;
69392;SDS011;56582;44.624;20.378;2023-03-19T05:38:54;8.17;;;5.43;;
69392;SDS011;56582;44.624;20.378;2023-03-19T05:41:19;8.88;;;6.25;;
69392;SDS011;56582;44.624;20.378;2023-03-19T05:43:45;8.80;;;6.60;;
69392;SDS011;56582;44.624;20.378;2023-03-19T05:46:11;8.93;;;6.00;;
69392;SDS011;56582;44.624;20.378;2023-03-19T05:48:36;8.37;;;5.40;;
69392;SDS011;56582;44.624;20.378;2023-03-19T05:51:02;11.50;;;5.60;;
69392;SDS011;56582;44.624;20.378;2023-03-19T05:53:27;22.03;;;6.20;;
69392;SDS011;56582;44.624;20.378;2023-03-19T05:55:53;9.43;;;6.70;;
69392;SDS011;56582;44.624;20.378;2023-03-19T05:58:19;10.93;;;6.47;;
69392;SDS011;56582;44.624;20.378;2023-03-19T06:00:44;11.13;;;6.23;;
69392;SDS011;56582;44.624;20.378;2023-03-19T06:03:10;11.40;;;6.50;;
69392;SDS011;56582;44.624;20.378;2023-03-19T06:05:35;7.40;;;5.00;;
69392;SDS011;56582;44.624;20.378;2023-03-19T06:08:00;12.73;;;6.50;;
69392;SDS011;56582;44.624;20.378;2023-03-19T06:10:26;9.83;;;7.33;;
69392;SDS011;56582;44.624;20.378;2023-03-19T06:12:51;16.80;;;8.65;;
69392;SDS011;56582;44.624;20.378;2023-03-19T06:15:17;11.50;;;6.67;;
69392;SDS011;56582;44.624;20.378;2023-03-19T06:17:42;9.03;;;6.63;;
69392;SDS011;56582;44.624;20.378;2023-03-19T06:20:09;11.25;;;6.88;;
69392;SDS011;56582;44.624;20.378;2023-03-19T06:22:35;8.82;;;5.85;;
69392;SDS011;56582;44.624;20.378;2023-03-19T06:25:01;10.43;;;6.97;;
69392;SDS011;56582;44.624;20.378;2023-03-19T06:27:26;9.67;;;6.23;;
69392;SDS011;56582;44.624;20.378;2023-03-19T06:29:52;10.52;;;6.97;;
69392;SDS011;56582;44.624;20.378;2023-03-19T06:32:17;12.77;;;7.13;;
69392;SDS011;56582;44.624;20.378;2023-03-19T06:34:43;9.43;;;5.77;;
69392;SDS011;56582;44.624;20.378;2023-03-19T06:37:08;12.75;;;7.47;;
69392;SDS011;56582;44.624;20.378;2023-03-19T06:39:34;8.57;;;5.97;;
69392;SDS011;56582;44.624;20.378;2023-03-19T06:41:59;12.00;;;7.00;;
69392;SDS011;56582;44.624;20.378;2023-03-19T06:44:25;12.50;;;6.20;;
69392;SDS011;56582;44.624;20.378;2023-03-19T06:46:50;10.60;;;7.60;;
69392;SDS011;56582;44.624;20.378;2023-03-19T06:49:16;8.23;;;5.90;;
69392;SDS011;56582;44.624;20.378;2023-03-19T06:51:42;10.13;;;7.07;;
69392;SDS011;56582;44.624;20.378;2023-03-19T06:54:07;14.03;;;8.60;;
69392;SDS011;56582;44.624;20.378;2023-03-19T06:56:32;11.50;;;7.00;;
69392;SDS011;56582;44.624;20.378;2023-03-19T06:58:58;12.60;;;8.20;;
69392;SDS011;56582;44.624;20.378;2023-03-19T07:01:23;13.77;;;8.00;;
69392;SDS011;56582;44.624;20.378;2023-03-19T07:03:49;11.27;;;7.37;;
69392;SDS011;56582;44.624;20.378;2023-03-19T07:06:14;13.55;;;8.93;;
69392;SDS011;56582;44.624;20.378;2023-03-19T07:08:40;8.70;;;5.33;;
69392;SDS011;56582;44.624;20.378;2023-03-19T07:11:10;9.13;;;6.05;;
69392;SDS011;56582;44.624;20.378;2023-03-19T07:13:36;10.07;;;6.80;;
69392;SDS011;56582;44.624;20.378;2023-03-19T07:16:02;9.87;;;6.40;;
69392;SDS011;56582;44.624;20.378;2023-03-19T07:18:28;9.35;;;7.32;;
69392;SDS011;56582;44.624;20.378;2023-03-19T07:20:53;8.43;;;5.03;;
69392;SDS011;56582;44.624;20.378;2023-03-19T07:23:19;9.67;;;5.90;;
69392;SDS011;56582;44.624;20.378;2023-03-19T07:25:44;9.33;;;5.53;;
69392;SDS011;56582;44.624;20.378;2023-03-19T07:28:11;24.60;;;10.82;;
69392;SDS011;56582;44.624;20.378;2023-03-19T07:30:37;13.07;;;7.70;;
69392;SDS011;56582;44.624;20.378;2023-03-19T07:33:03;11.40;;;6.70;;
69392;SDS011;56582;44.624;20.378;2023-03-19T07:35:31;12.95;;;8.20;;
69392;SDS011;56582;44.624;20.378;2023-03-19T07:37:56;10.30;;;7.20;;
69392;SDS011;56582;44.624;20.378;2023-03-19T07:40:23;10.25;;;7.00;;
69392;SDS011;56582;44.624;20.378;2023-03-19T07:42:49;10.45;;;7.15;;
69392;SDS011;56582;44.624;20.378;2023-03-19T07:45:15;9.30;;;7.03;;
69392;SDS011;56582;44.624;20.378;2023-03-19T07:47:40;9.60;;;6.63;;
69392;SDS011;56582;44.624;20.378;2023-03-19T07:50:06;9.93;;;6.13;;
69392;SDS011;56582;44.624;20.378;2023-03-19T07:52:32;9.88;;;7.55;;
69392;SDS011;56582;44.624;20.378;2023-03-19T07:54:58;10.50;;;7.67;;
69392;SDS011;56582;44.624;20.378;2023-03-19T07:57:23;11.00;;;7.17;;
69392;SDS011;56582;44.624;20.378;2023-03-19T07:59:50;9.95;;;7.20;;
69392;SDS011;56582;44.624;20.378;2023-03-19T08:02:15;9.98;;;6.18;;
69392;SDS011;56582;44.624;20.378;2023-03-19T08:04:42;10.18;;;7.05;;
69392;SDS011;56582;44.624;20.378;2023-03-19T08:07:07;10.83;;;6.73;;
69392;SDS011;56582;44.624;20.378;2023-03-19T08:09:35;9.35;;;6.10;;
69392;SDS011;56582;44.624;20.378;2023-03-19T08:12:01;10.02;;;6.75;;
69392;SDS011;56582;44.624;20.378;2023-03-19T08:14:27;11.37;;;6.87;;
69392;SDS011;56582;44.624;20.378;2023-03-19T08:16:52;10.17;;;6.50;;
69392;SDS011;56582;44.624;20.378;2023-03-19T08:19:17;8.97;;;7.00;;
69392;SDS011;56582;44.624;20.378;2023-03-19T08:21:43;10.30;;;6.30;;
69392;SDS011;56582;44.624;20.378;2023-03-19T08:24:08;9.37;;;5.93;;
69392;SDS011;56582;44.624;20.378;2023-03-19T08:26:34;11.63;;;7.03;;
69392;SDS011;56582;44.624;20.378;2023-03-19T08:28:59;12.40;;;8.27;;
69392;SDS011;56582;44.624;20.378;2023-03-19T08:31:25;9.67;;;6.13;;
69392;SDS011;56582;44.624;20.378;2023-03-19T08:33:50;12.83;;;8.03;;
69392;SDS011;56582;44.624;20.378;2023-03-19T08:36:16;11.50;;;7.18;;
69392;SDS011;56582;44.624;20.378;2023-03-19T08:38:42;9.87;;;6.87;;
69392;SDS011;56582;44.624;20.378;2023-03-19T08:41:08;13.05;;;6.07;;
69392;SDS011;56582;44.624;20.378;2023-03-19T08:43:34;9.43;;;6.35;;
69392;SDS011;56582;44.624;20.378;2023-03-19T08:46:01;9.93;;;6.70;;
69392;SDS011;56582;44.624;20.378;2023-03-19T08:48:28;10.50;;;6.60;;
69392;SDS011;56582;44.624;20.378;2023-03-19T08:50:54;11.23;;;6.60;;
69392;SDS011;56582;44.624;20.378;2023-03-19T08:53:20;9.63;;;6.93;;
69392;SDS011;56582;44.624;20.378;2023-03-19T08:55:51;11.60;;;6.70;;
69392;SDS011;56582;44.624;20.378;2023-03-19T08:58:20;11.50;;;6.82;;
69392;SDS011;56582;44.624;20.378;2023-03-19T09:00:46;10.57;;;7.07;;
69392;SDS011;56582;44.624;20.378;2023-03-19T09:03:35;9.37;;;6.20;;
69392;SDS011;56582;44.624;20.378;2023-03-19T09:06:16;10.93;;;6.90;;
69392;SDS011;56582;44.624;20.378;2023-03-19T09:11:26;10.67;;;7.00;;
69392;SDS011;56582;44.624;20.378;2023-03-19T09:13:51;13.85;;;9.35;;
69392;SDS011;56582;44.624;20.378;2023-03-19T09:16:17;14.23;;;8.23;;
69392;SDS011;56582;44.624;20.378;2023-03-19T09:18:43;10.27;;;6.40;;
69392;SDS011;56582;44.624;20.378;2023-03-19T09:21:11;8.88;;;6.63;;
69392;SDS011;56582;44.624;20.378;2023-03-19T09:23:36;12.50;;;6.73;;
69392;SDS011;56582;44.624;20.378;2023-03-19T09:26:02;10.63;;;5.88;;
69392;SDS011;56582;44.624;20.378;2023-03-19T09:28:27;10.23;;;6.77;;
69392;SDS011;56582;44.624;20.378;2023-03-19T09:30:53;11.05;;;6.63;;
69392;SDS011;56582;44.624;20.378;2023-03-19T09:33:27;46.05;;;19.27;;
69392;SDS011;56582;44.624;20.378;2023-03-19T09:35:55;39.85;;;11.52;;
69392;SDS011;56582;44.624;20.378;2023-03-19T09:38:21;24.10;;;13.67;;
69392;SDS011;56582;44.624;20.378;2023-03-19T09:40:53;9.90;;;6.57;;
69392;SDS011;56582;44.624;20.378;2023-03-19T09:46:02;9.43;;;5.72;;
69392;SDS011;56582;44.624;20.378;2023-03-19T09:51:09;9.90;;;7.05;;
69392;SDS011;56582;44.624;20.378;2023-03-19T09:53:58;8.52;;;5.95;;
69392;SDS011;56582;44.624;20.378;2023-03-19T09:56:28;9.10;;;6.15;;
69392;SDS011;56582;44.624;20.378;2023-03-19T09:58:56;9.30;;;6.50;;
69392;SDS011;56582;44.624;20.378;2023-03-19T10:01:27;9.70;;;6.77;;
69392;SDS011;56582;44.624;20.378;2023-03-19T10:06:47;9.77;;;6.10;;
69392;SDS011;56582;44.624;20.378;2023-03-19T10:14:35;8.90;;;6.03;;
69392;SDS011;56582;44.624;20.378;2023-03-19T10:17:15;8.57;;;6.05;;
69392;SDS011;56582;44.624;20.378;2023-03-19T10:19:46;9.18;;;5.43;;
69392;SDS011;56582;44.624;20.378;2023-03-19T10:22:24;10.35;;;6.22;;
69392;SDS011;56582;44.624;20.378;2023-03-19T10:24:56;8.87;;;5.47;;
69392;SDS011;56582;44.624;20.378;2023-03-19T10:27:24;11.55;;;5.28;;
69392;SDS011;56582;44.624;20.378;2023-03-19T10:29:52;8.20;;;6.03;;
69392;SDS011;56582;44.624;20.378;2023-03-19T10:32:19;8.68;;;5.18;;
69392;SDS011;56582;44.624;20.378;2023-03-19T10:34:52;7.30;;;5.32;;
69392;SDS011;56582;44.624;20.378;2023-03-19T10:37:19;7.40;;;4.87;;
69392;SDS011;56582;44.624;20.378;2023-03-19T10:39:51;8.55;;;4.80;;
69392;SDS011;56582;44.624;20.378;2023-03-19T10:48:01;8.35;;;5.20;;
69392;SDS011;56582;44.624;20.378;2023-03-19T10:50:30;6.67;;;5.10;;
69392;SDS011;56582;44.624;20.378;2023-03-19T10:53:27;8.43;;;5.82;;
69392;SDS011;56582;44.624;20.378;2023-03-19T10:55:58;7.72;;;5.55;;
69392;SDS011;56582;44.624;20.378;2023-03-19T10:58:25;7.45;;;5.00;;
69392;SDS011;56582;44.624;20.378;2023-03-19T11:01:01;9.40;;;6.00;;
69392;SDS011;56582;44.624;20.378;2023-03-19T11:03:31;26.90;;;6.27;;
69392;SDS011;56582;44.624;20.378;2023-03-19T11:06:16;13.15;;;5.57;;
69392;SDS011;56582;44.624;20.378;2023-03-19T11:09:03;16.88;;;9.80;;
69392;SDS011;56582;44.624;20.378;2023-03-19T11:11:47;14.48;;;9.00;;
69392;SDS011;56582;44.624;20.378;2023-03-19T11:14:18;9.13;;;5.72;;
69392;SDS011;56582;44.624;20.378;2023-03-19T11:16:55;7.50;;;4.80;;
69392;SDS011;56582;44.624;20.378;2023-03-19T11:19:40;9.88;;;6.32;;
69392;SDS011;56582;44.624;20.378;2023-03-19T11:22:16;14.55;;;9.00;;
69392;SDS011;56582;44.624;20.378;2023-03-19T11:24:49;9.27;;;6.22;;
69392;SDS011;56582;44.624;20.378;2023-03-19T11:27:25;12.13;;;6.65;;
69392;SDS011;56582;44.624;20.378;2023-03-19T11:29:52;15.27;;;9.53;;
69392;SDS011;56582;44.624;20.378;2023-03-19T11:32:29;42.67;;;24.33;;
69392;SDS011;56582;44.624;20.378;2023-03-19T11:35:26;11.75;;;6.80;;
69392;SDS011;56582;44.624;20.378;2023-03-19T11:38:00;8.00;;;5.63;;
69392;SDS011;56582;44.624;20.378;2023-03-19T11:40:36;23.10;;;12.05;;
69392;SDS011;56582;44.624;20.378;2023-03-19T11:51:22;9.20;;;6.28;;
69392;SDS011;56582;44.624;20.378;2023-03-19T11:56:52;8.73;;;5.57;;
69392;SDS011;56582;44.624;20.378;2023-03-19T12:04:45;9.60;;;5.70;;
69392;SDS011;56582;44.624;20.378;2023-03-19T12:18:11;16.63;;;11.10;;
69392;SDS011;56582;44.624;20.378;2023-03-19T12:23:49;13.93;;;8.83;;
69392;SDS011;56582;44.624;20.378;2023-03-19T12:29:02;7.90;;;5.40;;
69392;SDS011;56582;44.624;20.378;2023-03-19T12:39:24;7.82;;;5.35;;
69392;SDS011;56582;44.624;20.378;2023-03-19T12:41:53;9.00;;;5.53;;
69392;SDS011;56582;44.624;20.378;2023-03-19T12:44:24;10.13;;;5.50;;
69392;SDS011;56582;44.624;20.378;2023-03-19T12:47:09;9.65;;;5.70;;
69392;SDS011;56582;44.624;20.378;2023-03-19T12:49:43;11.18;;;6.57;;
69392;SDS011;56582;44.624;20.378;2023-03-19T12:57:53;10.47;;;5.90;;
69392;SDS011;56582;44.624;20.378;2023-03-19T13:00:31;11.98;;;7.60;;
69392;SDS011;56582;44.624;20.378;2023-03-19T13:03:12;15.10;;;7.80;;
69392;SDS011;56582;44.624;20.378;2023-03-19T13:05:46;9.77;;;6.30;;
69392;SDS011;56582;44.624;20.378;2023-03-19T13:11:07;18.53;;;16.43;;
69392;SDS011;56582;44.624;20.378;2023-03-19T13:21:43;10.27;;;7.80;;
69392;SDS011;56582;44.624;20.378;2023-03-19T13:24:18;11.77;;;8.63;;
69392;SDS011;56582;44.624;20.378;2023-03-19T13:26:45;11.60;;;7.28;;
69392;SDS011;56582;44.624;20.378;2023-03-19T13:29:28;15.30;;;6.82;;
69392;SDS011;56582;44.624;20.378;2023-03-19T13:31:59;11.13;;;6.72;;
69392;SDS011;56582;44.624;20.378;2023-03-19T13:34:26;12.70;;;6.85;;
69392;SDS011;56582;44.624;20.378;2023-03-19T13:36:59;12.77;;;7.60;;
69392;SDS011;56582;44.624;20.378;2023-03-19T13:39:31;11.70;;;7.18;;
69392;SDS011;56582;44.624;20.378;2023-03-19T13:47:48;10.77;;;6.18;;
69392;SDS011;56582;44.624;20.378;2023-03-19T13:50:26;9.57;;;6.47;;
69392;SDS011;56582;44.624;20.378;2023-03-19T13:55:53;10.13;;;6.63;;
69392;SDS011;56582;44.624;20.378;2023-03-19T13:58:27;9.85;;;6.45;;
69392;SDS011;56582;44.624;20.378;2023-03-19T14:01:34;17.90;;;10.10;;
69392;SDS011;56582;44.624;20.378;2023-03-19T14:04:12;11.67;;;6.73;;
69392;SDS011;56582;44.624;20.378;2023-03-19T14:06:46;8.75;;;5.93;;
69392;SDS011;56582;44.624;20.378;2023-03-19T14:17:23;11.97;;;7.87;;
69392;SDS011;56582;44.624;20.378;2023-03-19T14:19:51;12.23;;;7.80;;
69392;SDS011;56582;44.624;20.378;2023-03-19T14:22:37;10.43;;;7.05;;
69392;SDS011;56582;44.624;20.378;2023-03-19T14:25:14;11.50;;;6.50;;
69392;SDS011;56582;44.624;20.378;2023-03-19T14:27:43;11.88;;;6.93;;
69392;SDS011;56582;44.624;20.378;2023-03-19T14:30:32;11.70;;;7.27;;
69392;SDS011;56582;44.624;20.378;2023-03-19T14:33:04;11.85;;;7.95;;
69392;SDS011;56582;44.624;20.378;2023-03-19T14:35:40;11.38;;;6.45;;
69392;SDS011;56582;44.624;20.378;2023-03-19T14:40:52;9.68;;;6.20;;
69392;SDS011;56582;44.624;20.378;2023-03-19T14:45:58;9.90;;;6.47;;
69392;SDS011;56582;44.624;20.378;2023-03-19T14:51:29;10.32;;;5.97;;
69392;SDS011;56582;44.624;20.378;2023-03-19T14:57:07;9.40;;;6.50;;
69392;SDS011;56582;44.624;20.378;2023-03-19T14:59:40;9.43;;;6.90;;
69392;SDS011;56582;44.624;20.378;2023-03-19T15:02:15;9.38;;;6.57;;
69392;SDS011;56582;44.624;20.378;2023-03-19T15:04:56;21.43;;;14.37;;
69392;SDS011;56582;44.624;20.378;2023-03-19T15:07:35;11.60;;;7.47;;
69392;SDS011;56582;44.624;20.378;2023-03-19T15:10:04;10.50;;;7.47;;
69392;SDS011;56582;44.624;20.378;2023-03-19T15:12:40;12.93;;;7.65;;
69392;SDS011;56582;44.624;20.378;2023-03-19T15:18:31;9.73;;;5.53;;
69392;SDS011;56582;44.624;20.378;2023-03-19T15:20:56;11.38;;;6.88;;
69392;SDS011;56582;44.624;20.378;2023-03-19T15:23:26;14.98;;;9.23;;
69392;SDS011;56582;44.624;20.378;2023-03-19T15:25:53;11.27;;;6.55;;
69392;SDS011;56582;44.624;20.378;2023-03-19T15:28:21;16.83;;;9.00;;
69392;SDS011;56582;44.624;20.378;2023-03-19T15:30:59;12.00;;;8.15;;
69392;SDS011;56582;44.624;20.378;2023-03-19T15:33:35;14.23;;;8.82;;
69392;SDS011;56582;44.624;20.378;2023-03-19T15:36:20;13.82;;;6.75;;
69392;SDS011;56582;44.624;20.378;2023-03-19T15:39:03;13.43;;;8.02;;
69392;SDS011;56582;44.624;20.378;2023-03-19T15:41:33;10.27;;;6.83;;
69392;SDS011;56582;44.624;20.378;2023-03-19T15:44:32;10.10;;;6.53;;
69392;SDS011;56582;44.624;20.378;2023-03-19T15:47:00;11.57;;;7.05;;
69392;SDS011;56582;44.624;20.378;2023-03-19T15:49:34;18.00;;;12.77;;
69392;SDS011;56582;44.624;20.378;2023-03-19T15:52:07;11.82;;;7.43;;
69392;SDS011;56582;44.624;20.378;2023-03-19T15:54:36;12.00;;;7.27;;
69392;SDS011;56582;44.624;20.378;2023-03-19T15:57:02;15.38;;;7.75;;
69392;SDS011;56582;44.624;20.378;2023-03-19T15:59:31;12.23;;;8.40;;
69392;SDS011;56582;44.624;20.378;2023-03-19T16:02:00;16.95;;;9.63;;
69392;SDS011;56582;44.624;20.378;2023-03-19T16:04:28;19.87;;;11.80;;
69392;SDS011;56582;44.624;20.378;2023-03-19T16:06:55;14.57;;;9.40;;
69392;SDS011;56582;44.624;20.378;2023-03-19T16:09:26;22.05;;;12.80;;
69392;SDS011;56582;44.624;20.378;2023-03-19T16:11:57;24.17;;;16.05;;
69392;SDS011;56582;44.624;20.378;2023-03-19T16:14:41;20.63;;;13.55;;
69392;SDS011;56582;44.624;20.378;2023-03-19T16:17:14;24.60;;;15.13;;
69392;SDS011;56582;44.624;20.378;2023-03-19T16:19:52;33.60;;;17.98;;
69392;SDS011;56582;44.624;20.378;2023-03-19T16:22:20;42.67;;;25.10;;
69392;SDS011;56582;44.624;20.378;2023-03-19T16:24:48;90.85;;;47.17;;
69392;SDS011;56582;44.624;20.378;2023-03-19T16:27:17;60.35;;;32.85;;
69392;SDS011;56582;44.624;20.378;2023-03-19T16:29:47;46.47;;;27.70;;
69392;SDS011;56582;44.624;20.378;2023-03-19T16:32:21;69.72;;;37.28;;